Time;durP1;ratioP1;P1;durP2;ratioP2;P2;SDS_P1;SDS_P2;PMS_P1;PMS_P2;Temp;Humidity;BMP_temperature;BMP_pressure;BME280_temperature;BME280_humidity;BME280_pressure;Samples;Min_cycle;Max_cycle;Signal;HPM_P1;HPM_P2
2022/08/26 00:00:11;;;;;;;21.10;3.90;;;;;;;24.47;27.52;99112.52;25096;1312;3049850;-64
2022/08/26 00:02:42;;;;;;;13.10;3.50;;;;;;;24.42;27.74;99113.79;25126;1311;3027001;-63
2022/08/26 00:05:11;;;;;;;13.60;3.70;;;;;;;24.36;27.79;99113.69;25050;1312;3028586;-68
2022/08/26 00:07:41;;;;;;;15.00;3.20;;;;;;;24.35;27.76;99107.61;25081;1311;3051175;-67
2022/08/26 00:10:11;;;;;;;15.40;3.60;;;;;;;24.29;27.93;99105.56;25135;1312;3026512;-65
2022/08/26 00:12:41;;;;;;;15.00;3.60;;;;;;;24.29;27.84;99105.65;25143;1311;3027426;-67
2022/08/26 00:15:12;;;;;;;15.10;3.60;;;;;;;24.26;27.88;99105.04;25168;1312;3026334;-68
2022/08/26 00:17:42;;;;;;;22.30;3.90;;;;;;;24.23;27.98;99104.19;25085;1312;3026583;-67
2022/08/26 00:20:12;;;;;;;12.60;3.20;;;;;;;24.21;27.90;99106.06;25056;1311;3026903;-68
2022/08/26 00:22:42;;;;;;;19.50;3.80;;;;;;;24.19;28.21;99104.31;25197;1312;3026690;-64
2022/08/26 00:25:11;;;;;;;18.60;3.90;;;;;;;24.17;28.11;99103.58;25091;1312;3026398;-62
2022/08/26 00:27:42;;;;;;;19.60;3.60;;;;;;;24.16;28.08;99099.54;25078;1312;3055302;-64
2022/08/26 00:30:18;;;;;;;16.10;3.80;;;;;;;24.13;28.23;99101.89;25098;1311;3026847;-65
2022/08/26 00:32:47;;;;;;;17.40;3.90;;;;;;;24.10;28.16;99104.50;25045;1312;3070279;-67
2022/08/26 00:35:16;;;;;;;16.80;3.40;;;;;;;24.07;28.39;99104.66;25129;1312;3026631;-67
2022/08/26 00:37:45;;;;;;;18.70;4.30;;;;;;;24.00;28.69;99102.88;25087;1312;3048834;-66
2022/08/26 00:40:19;;;;;;;14.40;3.80;;;;;;;23.98;28.44;99104.77;25068;1311;3026727;-67
2022/08/26 00:42:48;;;;;;;17.40;4.20;;;;;;;23.99;28.47;99102.55;25139;1312;3054978;-66
2022/08/26 00:45:18;;;;;;;19.20;3.80;;;;;;;23.90;28.65;99099.97;25089;1312;3026088;-67
2022/08/26 00:47:56;;;;;;;16.20;3.40;;;;;;;23.88;28.78;99099.53;25060;1311;3026247;-68
2022/08/26 00:50:29;;;;;;;14.20;3.80;;;;;;;23.89;28.76;99094.05;25060;1311;3051987;-63
2022/08/26 00:52:59;;;;;;;15.50;3.00;;;;;;;23.87;28.78;99095.72;25098;1312;3027085;-63
2022/08/26 00:55:29;;;;;;;15.30;3.60;;;;;;;23.82;29.08;99088.27;25129;1311;3026851;-66
2022/08/26 00:57:58;;;;;;;17.00;4.00;;;;;;;23.80;29.19;99086.75;25111;1312;3026628;-63
2022/08/26 01:00:29;;;;;;;16.90;3.40;;;;;;;23.76;29.26;99086.70;25093;1314;3029059;-65
2022/08/26 01:03:00;;;;;;;15.10;3.70;;;;;;;23.75;29.17;99086.40;25039;1314;3026197;-63
2022/08/26 01:05:29;;;;;;;11.50;3.10;;;;;;;23.74;29.22;99081.52;25045;1312;3026580;-68
2022/08/26 01:07:58;;;;;;;23.10;4.10;;;;;;;23.65;29.60;99081.58;25026;1314;3026274;-71
2022/08/26 01:10:28;;;;;;;14.00;3.90;;;;;;;23.61;29.18;99077.77;25032;1315;3052525;-68
2022/08/26 01:13:00;;;;;;;24.20;3.60;;;;;;;23.59;29.11;99079.65;25066;1315;3026431;-67
2022/08/26 01:15:35;;;;;;;15.10;3.70;;;;;;;23.57;29.55;99079.74;25027;1315;3026757;-64
2022/08/26 01:18:04;;;;;;;21.90;4.30;;;;;;;23.56;29.42;99080.68;25178;1312;3049766;-68
2022/08/26 01:20:59;;;;;;;20.90;4.20;;;;;;;23.51;29.52;99080.73;25080;1313;3026292;-63
2022/08/26 01:23:31;;;;;;;19.30;3.90;;;;;;;23.46;29.77;99082.55;25099;1312;3055376;-61
2022/08/26 01:26:05;;;;;;;15.40;4.10;;;;;;;23.43;29.73;99087.04;25139;1315;3027694;-62
2022/08/26 01:28:34;;;;;;;18.10;4.30;;;;;;;23.46;29.79;99092.40;25111;1315;3048793;-69
2022/08/26 01:31:04;;;;;;;14.70;3.40;;;;;;;23.44;29.99;99091.25;25069;1317;3026242;-67
2022/08/26 01:33:55;;;;;;;16.20;4.10;;;;;;;23.44;29.95;99090.11;25068;1315;3026834;-63
2022/08/26 01:36:24;;;;;;;21.60;3.60;;;;;;;23.41;30.28;99085.81;25050;1312;3071478;-67
2022/08/26 01:38:53;;;;;;;9.20;2.90;;;;;;;23.38;30.40;99084.26;25063;1313;3027470;-67
2022/08/26 01:41:23;;;;;;;15.30;3.50;;;;;;;23.35;30.37;99086.11;25064;1312;3052649;-66
2022/08/26 01:43:53;;;;;;;15.30;2.80;;;;;;;23.32;30.50;99078.31;25055;1312;3026536;-65
2022/08/26 01:46:23;;;;;;;11.40;3.00;;;;;;;23.26;30.66;99075.80;25097;1312;3026893;-66
2022/08/26 01:48:52;;;;;;;14.50;3.30;;;;;;;23.23;30.55;99077.66;25095;1312;3026502;-63
2022/08/26 01:51:22;;;;;;;13.50;3.50;;;;;;;23.14;30.68;99074.99;25087;1315;3026631;-64
2022/08/26 01:53:51;;;;;;;10.90;2.60;;;;;;;23.09;30.81;99077.02;25067;1312;3026440;-67
2022/08/26 01:56:21;;;;;;;16.60;3.10;;;;;;;23.01;30.92;99074.91;25086;1313;3028064;-65
2022/08/26 01:58:51;;;;;;;18.20;3.10;;;;;;;22.99;30.82;99078.95;25134;1314;3051674;-64
2022/08/26 02:01:21;;;;;;;13.70;3.40;;;;;;;22.94;31.02;99076.70;25090;1312;3026442;-69
2022/08/26 02:04:16;;;;;;;18.90;3.30;;;;;;;22.91;30.94;99076.50;25111;1315;3027452;-68
2022/08/26 02:06:45;;;;;;;18.20;3.30;;;;;;;22.89;30.86;99075.27;25113;1312;3055595;-65
2022/08/26 02:09:15;;;;;;;24.40;3.00;;;;;;;22.85;31.12;99072.20;25122;1313;3026085;-67
2022/08/26 02:11:45;;;;;;;11.60;3.20;;;;;;;22.81;31.09;99075.35;25136;1312;3049642;-66
2022/08/26 02:14:25;;;;;;;16.00;2.70;;;;;;;22.81;31.06;99078.56;25117;1312;3026804;-63
2022/08/26 02:16:54;;;;;;;14.40;2.90;;;;;;;22.78;31.21;99077.48;25106;1312;3052777;-66
2022/08/26 02:19:29;;;;;;;8.40;2.80;;;;;;;22.76;31.35;99080.31;25095;1312;3026756;-63
2022/08/26 02:22:00;;;;;;;18.00;3.30;;;;;;;22.77;31.26;99076.62;25129;1315;3048063;-68
2022/08/26 02:24:45;;;;;;;21.20;3.40;;;;;;;22.71;31.46;99079.48;25100;1312;3026957;-65
2022/08/26 02:27:30;;;;;;;18.10;2.60;;;;;;;22.66;31.62;99079.36;25080;1314;3053875;-65
2022/08/26 02:30:09;;;;;;;13.80;3.00;;;;;;;22.67;31.58;99076.77;25110;1312;3057589;-64
2022/08/26 02:32:39;;;;;;;20.30;3.00;;;;;;;22.70;31.77;99080.73;25055;1312;3051320;-63
2022/08/26 02:35:09;;;;;;;9.90;2.80;;;;;;;22.70;31.76;99083.41;25068;1312;3028419;-63
2022/08/26 02:37:39;;;;;;;16.60;3.50;;;;;;;22.70;31.41;99086.38;25105;1312;3026394;-62
2022/08/26 02:40:08;;;;;;;12.40;2.90;;;;;;;22.74;31.28;99093.31;25117;1312;3026612;-63
2022/08/26 02:42:37;;;;;;;16.30;2.70;;;;;;;22.71;31.74;99095.25;25106;1315;3055496;-65
2022/08/26 02:45:08;;;;;;;21.60;3.90;;;;;;;22.70;31.77;99098.73;25076;1313;3026613;-64
2022/08/26 02:47:38;;;;;;;20.30;3.00;;;;;;;22.66;31.92;99100.62;25038;1315;3049302;-66
2022/08/26 02:50:07;;;;;;;14.00;3.00;;;;;;;22.66;31.77;99102.79;25023;1315;3029281;-65
2022/08/26 02:52:36;;;;;;;12.60;2.80;;;;;;;22.67;31.85;99107.66;25115;1315;3026677;-66
2022/08/26 02:55:05;;;;;;;18.60;3.90;;;;;;;22.66;31.82;99108.31;25097;1315;3050273;-64
2022/08/26 02:57:34;;;;;;;18.40;2.90;;;;;;;22.65;31.88;99110.39;25099;1315;3026111;-67
2022/08/26 03:00:06;;;;;;;16.90;3.20;;;;;;;22.66;31.64;99111.77;25077;1313;3026371;-65
2022/08/26 03:02:35;;;;;;;23.60;3.80;;;;;;;22.65;31.66;99117.73;25077;1315;3049343;-66
2022/08/26 03:05:06;;;;;;;19.60;3.80;;;;;;;22.62;31.63;99121.42;25058;1317;3026405;-71
2022/08/26 03:07:35;;;;;;;10.50;3.10;;;;;;;22.58;32.07;99123.83;25098;1313;3026379;-64
2022/08/26 03:10:05;;;;;;;15.50;3.50;;;;;;;22.58;32.10;99126.52;25086;1314;3026774;-65
2022/08/26 03:12:35;;;;;;;5.70;2.80;;;;;;;22.58;32.20;99124.77;25069;1315;3026804;-68
2022/08/26 03:15:05;;;;;;;16.90;3.60;;;;;;;22.52;32.47;99121.20;25098;1312;3026604;-63
2022/08/26 03:17:34;;;;;;;14.00;3.70;;;;;;;22.51;32.53;99123.98;25149;1312;3027155;-62
2022/08/26 03:20:08;;;;;;;10.60;3.30;;;;;;;22.48;32.66;99122.34;25095;1312;3026647;-63
2022/08/26 03:22:37;;;;;;;11.70;3.30;;;;;;;22.44;32.65;99122.56;25076;1312;3052672;-64
2022/08/26 03:25:08;;;;;;;16.90;3.70;;;;;;;22.43;32.82;99116.82;25108;1312;3026769;-63
2022/08/26 03:27:38;;;;;;;15.80;3.40;;;;;;;22.43;32.63;99118.62;25121;1312;3049424;-66
2022/08/26 03:32:56;;;;;;;16.20;3.40;;;;;;;22.51;32.85;99116.16;25084;1312;3071691;-63
2022/08/26 03:35:25;;;;;;;18.00;3.70;;;;;;;22.52;32.81;99112.93;25086;1312;3026408;-69
2022/08/26 03:37:55;;;;;;;16.70;4.40;;;;;;;22.54;32.69;99115.45;25130;1312;3026092;-67
2022/08/26 03:40:24;;;;;;;18.80;3.90;;;;;;;22.50;32.94;99118.54;25160;1312;3069366;-69
2022/08/26 03:42:53;;;;;;;20.50;4.10;;;;;;;22.42;33.01;99119.14;25068;1312;3026734;-65
2022/08/26 03:45:22;;;;;;;23.40;4.00;;;;;;;22.49;32.95;99120.95;25104;1312;3051123;-68
2022/08/26 03:47:51;;;;;;;23.10;3.80;;;;;;;22.47;33.30;99127.34;25056;1312;3027916;-65
2022/08/26 03:50:21;;;;;;;9.20;3.50;;;;;;;22.46;33.40;99126.50;25092;1312;3026413;-68
2022/08/26 03:52:51;;;;;;;18.70;4.60;;;;;;;22.43;33.83;99128.30;25173;1312;3050950;-69
2022/08/26 03:55:22;;;;;;;18.30;4.30;;;;;;;22.44;33.72;99127.54;25103;1312;3027730;-66
2022/08/26 03:57:51;;;;;;;18.70;4.20;;;;;;;22.46;33.81;99126.84;25086;1312;3027509;-64
2022/08/26 04:00:20;;;;;;;14.30;4.40;;;;;;;22.49;33.53;99125.98;25163;1312;3026478;-67
2022/08/26 04:02:50;;;;;;;14.00;4.30;;;;;;;22.44;33.79;99130.66;25058;1312;3026340;-62
2022/08/26 04:05:20;;;;;;;14.70;4.00;;;;;;;22.41;33.73;99134.17;25092;1312;3026997;-65
2022/08/26 04:07:50;;;;;;;16.20;4.00;;;;;;;22.40;34.02;99134.46;25113;1312;3026655;-67
2022/08/26 04:10:23;;;;;;;18.70;3.80;;;;;;;22.42;34.05;99136.93;25112;1312;3026096;-68
2022/08/26 04:12:52;;;;;;;18.30;4.10;;;;;;;22.39;34.27;99136.08;25126;1312;3026776;-64
2022/08/26 04:15:21;;;;;;;16.80;4.50;;;;;;;22.38;34.16;99137.71;25063;1311;3026326;-70
2022/08/26 04:17:51;;;;;;;13.30;3.10;;;;;;;22.37;34.07;99139.67;25078;1312;3056065;-65
2022/08/26 04:20:20;;;;;;;22.40;4.20;;;;;;;22.38;33.93;99134.05;25107;1312;3026970;-65
2022/08/26 04:22:49;;;;;;;21.90;5.10;;;;;;;22.32;34.40;99136.70;25043;1312;3049326;-66
2022/08/26 04:25:18;;;;;;;18.20;3.80;;;;;;;22.24;34.39;99134.10;25116;1312;3026962;-65
2022/08/26 04:27:47;;;;;;;17.00;3.80;;;;;;;22.31;33.85;99140.21;25067;1312;3058776;-63
2022/08/26 04:30:16;;;;;;;13.40;3.30;;;;;;;22.32;34.06;99136.30;25085;1312;3026528;-65
2022/08/26 04:32:46;;;;;;;13.90;3.50;;;;;;;22.33;34.29;99131.88;25126;1312;3054287;-63
2022/08/26 04:35:15;;;;;;;12.90;3.80;;;;;;;22.29;34.61;99132.10;25083;1312;3026675;-64
2022/08/26 04:37:44;;;;;;;21.70;4.10;;;;;;;22.28;34.41;99132.11;25093;1312;3054643;-66
2022/08/26 04:40:13;;;;;;;12.80;3.60;;;;;;;22.28;34.30;99132.69;25068;1311;3026404;-66
2022/08/26 04:42:43;;;;;;;15.00;3.20;;;;;;;22.25;34.82;99127.27;25165;1312;3048385;-66
2022/08/26 04:45:12;;;;;;;10.90;3.00;;;;;;;22.22;34.69;99124.02;25112;1312;3027205;-68
2022/08/26 04:47:43;;;;;;;16.60;3.20;;;;;;;22.29;34.64;99117.56;25069;1312;3026487;-68
2022/08/26 04:50:13;;;;;;;11.80;3.20;;;;;;;22.26;34.59;99110.89;25087;1315;3026640;-70
2022/08/26 04:52:42;;;;;;;8.90;3.10;;;;;;;22.31;34.51;99110.38;25138;1312;3051379;-65
2022/08/26 04:55:11;;;;;;;18.50;3.60;;;;;;;22.35;34.48;99114.52;25062;1312;3027492;-62
2022/08/26 04:57:41;;;;;;;17.30;3.40;;;;;;;22.38;34.23;99112.02;25146;1312;3048929;-69
2022/08/26 05:00:12;;;;;;;13.80;3.70;;;;;;;22.48;34.17;99113.73;25074;1311;3026503;-66
2022/08/26 05:02:41;;;;;;;18.00;3.20;;;;;;;22.53;34.16;99108.92;25010;1312;3027351;-66
2022/08/26 05:05:11;;;;;;;16.70;3.60;;;;;;;22.57;33.98;99108.62;25094;1312;3026586;-64
2022/08/26 05:07:40;;;;;;;10.20;3.00;;;;;;;22.61;34.16;99108.69;25161;1312;3052558;-70
2022/08/26 05:10:09;;;;;;;12.40;3.50;;;;;;;22.59;34.41;99111.58;25091;1312;3026814;-68
2022/08/26 05:12:38;;;;;;;10.90;3.00;;;;;;;22.55;34.40;99106.48;25098;1312;3050888;-68
2022/08/26 05:15:09;;;;;;;10.80;3.10;;;;;;;22.52;34.24;99105.77;25140;1312;3026648;-62
2022/08/26 05:17:39;;;;;;;19.60;3.20;;;;;;;22.53;34.06;99102.08;25067;1312;3069255;-66
2022/08/26 05:20:08;;;;;;;12.90;2.90;;;;;;;22.47;33.91;99108.52;25109;1312;3027665;-66
2022/08/26 05:22:38;;;;;;;15.70;3.00;;;;;;;22.50;33.95;99112.48;25120;1312;3051271;-65
2022/08/26 05:25:08;;;;;;;28.00;3.50;;;;;;;22.56;34.21;99114.90;25059;1312;3026949;-64
2022/08/26 05:27:37;;;;;;;14.00;3.00;;;;;;;22.60;33.93;99121.64;25102;1312;3026915;-64
2022/08/26 05:30:08;;;;;;;13.40;3.60;;;;;;;22.67;33.85;99124.98;25107;1312;3026787;-63
2022/08/26 05:32:38;;;;;;;21.20;3.40;;;;;;;22.73;33.88;99127.95;25129;1312;3069299;-63
2022/08/26 05:35:07;;;;;;;18.00;3.10;;;;;;;22.83;33.77;99130.06;25106;1312;3026166;-67
2022/08/26 05:37:37;;;;;;;17.70;3.20;;;;;;;22.87;33.75;99130.98;25114;1312;3050991;-67
2022/08/26 05:40:07;;;;;;;20.40;3.10;;;;;;;22.96;33.37;99130.31;25118;1312;3026264;-66
2022/08/26 05:42:36;;;;;;;9.50;3.20;;;;;;;23.01;33.36;99130.96;25124;1312;3027327;-65
2022/08/26 05:45:06;;;;;;;15.80;3.20;;;;;;;23.07;33.62;99130.60;25142;1312;3026953;-65
2022/08/26 05:47:35;;;;;;;11.80;2.70;;;;;;;23.10;33.60;99118.85;25094;1312;3070877;-68
2022/08/26 05:50:05;;;;;;;14.10;3.30;;;;;;;23.16;33.22;99123.85;25092;1311;3026415;-65
2022/08/26 05:52:35;;;;;;;22.10;3.10;;;;;;;23.18;33.10;99123.64;25086;1314;3053052;-64
2022/08/26 05:55:04;;;;;;;15.50;3.20;;;;;;;23.24;32.99;99123.34;25147;1312;3026220;-63
2022/08/26 05:57:34;;;;;;;15.40;3.10;;;;;;;23.24;33.19;99123.80;25111;1312;3052796;-68
2022/08/26 06:00:03;;;;;;;10.70;2.80;;;;;;;23.30;33.16;99121.66;25083;1315;3026565;-67
2022/08/26 06:02:41;;;;;;;14.30;3.50;;;;;;;23.40;32.64;99121.76;25057;1312;3050229;-66
2022/08/26 06:05:10;;;;;;;9.60;2.90;;;;;;;23.47;32.13;99126.43;25136;1312;3026100;-68
2022/08/26 06:10:31;;;;;;;13.60;2.80;;;;;;;23.68;32.31;99130.52;25061;1313;3050813;-72
2022/08/26 06:13:00;;;;;;;15.10;2.80;;;;;;;23.71;32.03;99124.70;25101;1312;3026322;-66
2022/08/26 06:15:30;;;;;;;18.80;3.00;;;;;;;23.73;32.02;99124.51;25101;1312;3026513;-64
2022/08/26 06:17:59;;;;;;;12.80;3.00;;;;;;;23.87;31.54;99124.11;25015;1312;3026802;-64
2022/08/26 06:20:30;;;;;;;18.30;3.00;;;;;;;23.98;31.14;99120.14;25107;1312;3026664;-63
2022/08/26 06:25:47;;;;;;;13.50;2.30;;;;;;;24.22;30.65;99125.81;25131;1312;3067271;-63
2022/08/26 06:28:16;;;;;;;11.00;2.50;;;;;;;24.24;30.50;99124.05;25116;1312;3027049;-66
2022/08/26 06:30:46;;;;;;;27.50;2.80;;;;;;;24.28;30.20;99118.95;25131;1312;3026608;-68
2022/08/26 06:33:15;;;;;;;23.10;2.70;;;;;;;24.29;29.70;99124.02;25146;1315;3066741;-66
2022/08/26 06:35:47;;;;;;;13.90;2.70;;;;;;;24.23;29.96;99123.76;25101;1313;3027278;-65
2022/08/26 06:38:16;;;;;;;7.40;2.30;;;;;;;24.23;30.08;99123.54;25118;1312;3026930;-71
2022/08/26 06:40:47;;;;;;;17.30;3.20;;;;;;;24.29;29.99;99117.08;25121;1312;3026673;-67
2022/08/26 06:43:18;;;;;;;19.60;2.60;;;;;;;24.43;29.78;99115.88;25103;1312;3048995;-65
2022/08/26 06:45:47;;;;;;;15.10;2.20;;;;;;;24.55;29.39;99113.48;25072;1312;3027122;-69
2022/08/26 06:48:18;;;;;;;11.00;2.90;;;;;;;24.64;29.69;99108.65;25161;1312;3027555;-69
2022/08/26 06:50:47;;;;;;;9.40;2.90;;;;;;;24.75;29.30;99111.88;25174;1312;3049022;-64
2022/08/26 06:53:16;;;;;;;14.40;2.90;;;;;;;24.78;29.69;99108.07;25162;1313;3026900;-64
2022/08/26 06:55:45;;;;;;;9.80;3.10;;;;;;;24.86;29.91;99111.39;25046;1312;3071931;-71
2022/08/26 06:58:14;;;;;;;10.60;3.00;;;;;;;24.86;30.06;99113.68;25134;1312;3026623;-67
2022/08/26 07:00:43;;;;;;;17.30;2.80;;;;;;;24.86;29.90;99120.36;25114;1312;3025930;-69
2022/08/26 07:03:12;;;;;;;18.40;3.30;;;;;;;24.90;29.69;99117.50;25087;1315;3067713;-69
2022/08/26 07:05:42;;;;;;;10.90;2.60;;;;;;;25.00;29.55;99114.89;25140;1312;3027796;-66
2022/08/26 07:08:11;;;;;;;15.80;3.10;;;;;;;24.99;29.76;99112.19;25057;1312;3028480;-65
2022/08/26 07:10:41;;;;;;;13.00;2.60;;;;;;;25.07;29.40;99114.82;25110;1312;3069905;-63
2022/08/26 07:13:11;;;;;;;9.20;2.60;;;;;;;25.17;29.48;99114.30;25157;1312;3030124;-68
2022/08/26 07:15:41;;;;;;;14.80;4.10;;;;;;;25.25;29.74;99116.42;25124;1312;3026898;-68
2022/08/26 07:18:09;;;;;;;15.60;2.60;;;;;;;25.26;29.90;99117.79;25123;1315;3027057;-63
2022/08/26 07:20:40;;;;;;;9.90;2.60;;;;;;;25.37;29.65;99116.68;25143;1312;3026235;-67
2022/08/26 07:23:10;;;;;;;10.10;2.20;;;;;;;25.44;29.72;99111.44;25096;1313;3026959;-67
2022/08/26 07:25:42;;;;;;;13.80;3.60;;;;;;;25.56;29.40;99106.65;25139;1312;3027541;-64
2022/08/26 07:28:11;;;;;;;12.60;2.90;;;;;;;25.59;29.70;99105.85;25098;1312;3026583;-69
2022/08/26 07:30:40;;;;;;;10.60;2.90;;;;;;;25.58;29.63;99107.70;25090;1312;3049795;-63
2022/08/26 07:33:10;;;;;;;15.30;3.00;;;;;;;25.59;28.67;99105.35;25078;1312;3026291;-66
2022/08/26 07:35:39;;;;;;;14.40;3.00;;;;;;;25.70;28.63;99109.54;25101;1312;3058514;-65
2022/08/26 07:38:08;;;;;;;14.40;2.40;;;;;;;25.73;28.12;99110.73;25100;1313;3026667;-66
2022/08/26 07:40:37;;;;;;;12.10;3.00;;;;;;;25.81;28.02;99108.77;25006;1315;3052479;-64
2022/08/26 07:43:08;;;;;;;12.90;3.00;;;;;;;25.91;28.08;99114.34;25125;1313;3028508;-65
2022/08/26 07:45:37;;;;;;;10.60;2.80;;;;;;;26.03;28.01;99112.98;25059;1313;3051003;-65
2022/08/26 07:48:06;;;;;;;13.10;2.70;;;;;;;26.09;27.94;99115.23;25148;1313;3026531;-66
2022/08/26 07:50:35;;;;;;;8.90;2.40;;;;;;;26.17;27.69;99118.27;25150;1312;3051606;-65
2022/08/26 07:53:05;;;;;;;12.20;2.20;;;;;;;26.21;27.56;99114.95;25064;1312;3026821;-67
2022/08/26 07:55:34;;;;;;;9.80;2.20;;;;;;;26.21;26.73;99112.77;25108;1311;3026831;-67
2022/08/26 07:58:04;;;;;;;16.50;2.30;;;;;;;26.31;26.72;99114.23;25069;1313;3051289;-65
2022/08/26 08:00:33;;;;;;;10.40;2.40;;;;;;;26.37;26.71;99121.57;25060;1315;3026646;-67
2022/08/26 08:03:03;;;;;;;9.70;2.00;;;;;;;26.49;26.69;99109.37;25096;1313;3026695;-66
2022/08/26 08:05:32;;;;;;;10.60;1.90;;;;;;;26.60;26.54;99114.42;25121;1315;3049624;-66
2022/08/26 08:08:04;;;;;;;9.40;2.60;;;;;;;26.72;26.48;99105.21;25064;1315;3027159;-65
2022/08/26 08:10:35;;;;;;;15.70;2.60;;;;;;;26.73;25.47;99101.83;25097;1312;3026808;-64
2022/08/26 08:13:06;;;;;;;11.10;2.60;;;;;;;26.81;24.82;99104.65;25129;1312;3028311;-68
2022/08/26 08:15:36;;;;;;;16.90;2.60;;;;;;;26.87;24.72;99110.66;25041;1311;3029805;-64
2022/08/26 08:18:05;;;;;;;11.90;2.40;;;;;;;26.93;24.60;99105.34;25066;1312;3026351;-68
2022/08/26 08:20:35;;;;;;;11.30;2.20;;;;;;;26.92;24.48;99104.13;25121;1312;3026696;-65
2022/08/26 08:23:04;;;;;;;10.00;1.80;;;;;;;27.03;24.75;99102.19;25080;1312;3029979;-64
2022/08/26 08:25:34;;;;;;;17.80;2.10;;;;;;;27.03;24.65;99104.59;25059;1315;3055408;-67
2022/08/26 08:28:04;;;;;;;14.20;1.90;;;;;;;26.95;24.90;99103.43;25080;1313;3027422;-66
2022/08/26 08:30:33;;;;;;;10.80;2.10;;;;;;;26.89;24.68;99102.77;25050;1313;3026832;-66
2022/08/26 08:33:02;;;;;;;9.70;2.40;;;;;;;27.05;24.76;99105.87;25167;1313;3051923;-66
2022/08/26 08:35:33;;;;;;;17.80;2.20;;;;;;;27.05;24.86;99094.38;25071;1314;3026163;-64
2022/08/26 08:38:02;;;;;;;8.20;2.10;;;;;;;27.09;24.81;99097.02;25111;1312;3026635;-69
2022/08/26 08:40:32;;;;;;;8.50;2.10;;;;;;;27.11;24.53;99097.27;25112;1312;3026990;-65
2022/08/26 08:43:05;;;;;;;17.40;2.10;;;;;;;27.15;24.61;99097.90;25109;1312;3027212;-67
2022/08/26 08:45:40;;;;;;;13.10;1.90;;;;;;;27.28;24.71;99092.63;25064;1312;3071088;-65
2022/08/26 08:48:28;;;;;;;15.60;2.10;;;;;;;27.30;24.31;99095.29;25110;1312;3047085;-67
2022/08/26 08:51:21;;;;;;;14.30;2.30;;;;;;;27.30;24.35;99097.82;25099;1312;3052652;-65
2022/08/26 08:53:51;;;;;;;17.50;2.80;;;;;;;27.25;24.18;99090.95;25126;1312;3055268;-65
2022/08/26 08:56:27;;;;;;;12.60;2.20;;;;;;;27.30;23.81;99093.29;25124;1312;3026809;-64
2022/08/26 08:59:12;;;;;;;5.70;1.80;;;;;;;27.34;23.99;99090.97;25114;1312;3050040;-68
2022/08/26 09:01:51;;;;;;;11.30;1.90;;;;;;;27.37;24.09;99089.80;25125;1312;3055451;-67
2022/08/26 09:04:42;;;;;;;9.50;2.10;;;;;;;27.47;24.40;99089.75;25131;1312;3054049;-66
2022/08/26 09:07:36;;;;;;;16.20;2.10;;;;;;;27.49;24.27;99083.56;25084;1312;3071000;-66
2022/08/26 09:10:31;;;;;;;7.70;2.00;;;;;;;27.59;24.07;99083.92;25079;1315;3050113;-64
2022/08/26 09:13:03;;;;;;;19.30;2.20;;;;;;;27.67;24.06;99082.86;25081;1312;3051834;-66
2022/08/26 09:15:39;;;;;;;8.80;1.80;;;;;;;27.64;23.92;99086.86;25139;1312;3026729;-65
2022/08/26 09:18:35;;;;;;;7.60;2.10;;;;;;;27.79;23.79;99090.50;25132;1312;3057760;-66
2022/08/26 09:21:07;;;;;;;11.00;2.00;;;;;;;27.83;24.08;99090.44;25150;1312;3049732;-67
2022/08/26 09:23:38;;;;;;;14.00;2.60;;;;;;;27.89;23.92;99087.21;25149;1312;3026164;-70
2022/08/26 09:26:24;;;;;;;19.10;2.50;;;;;;;27.92;23.50;99083.38;25215;1312;3026712;-66
2022/08/26 09:28:57;;;;;;;19.70;2.00;;;;;;;27.87;23.51;99087.23;25115;1312;3071220;-70
2022/08/26 09:31:28;;;;;;;17.70;2.30;;;;;;;27.89;23.62;99094.35;25147;1312;3026798;-68
2022/08/26 09:34:15;;;;;;;13.00;2.30;;;;;;;27.98;23.83;99089.54;25121;1312;3026870;-66
2022/08/26 09:36:50;;;;;;;10.60;2.30;;;;;;;28.08;23.58;99096.78;25177;1312;3052513;-66
2022/08/26 09:39:33;;;;;;;18.90;2.80;;;;;;;28.21;24.00;99094.20;25186;1311;3056505;-69
2022/08/26 09:42:22;;;;;;;19.20;2.70;;;;;;;28.23;23.33;99094.23;25158;1313;3049780;-69
2022/08/26 09:45:14;;;;;;;10.80;2.20;;;;;;;28.36;23.21;99092.52;25294;1312;3051840;-70
2022/08/26 09:47:53;;;;;;;17.60;2.50;;;;;;;28.40;23.41;99094.33;25307;1312;3051553;-72
2022/08/26 09:50:50;;;;;;;14.90;2.30;;;;;;;28.34;23.56;99093.16;25304;1311;3069589;-69
2022/08/26 09:53:49;;;;;;;18.20;2.50;;;;;;;28.41;23.60;99092.27;25247;1314;3049170;-71
2022/08/26 09:56:30;;;;;;;10.10;2.10;;;;;;;28.49;23.83;99097.71;25165;1312;3055201;-67
2022/08/26 09:59:07;;;;;;;11.20;2.00;;;;;;;28.52;23.77;99092.70;25228;1312;3055182;-67
2022/08/26 10:01:40;;;;;;;12.60;2.60;;;;;;;28.38;23.58;99090.19;25218;1311;3059281;-67
2022/08/26 10:04:36;;;;;;;13.40;2.40;;;;;;;28.26;23.31;99095.45;25197;1312;3027131;-65
2022/08/26 10:07:06;;;;;;;11.30;2.10;;;;;;;28.24;23.30;99098.39;25167;1314;3053678;-68
2022/08/26 10:09:43;;;;;;;15.50;2.40;;;;;;;28.27;23.77;99096.88;25214;1312;3026902;-64
2022/08/26 10:12:15;;;;;;;15.10;2.40;;;;;;;28.17;23.90;99092.89;25173;1315;3067878;-66
2022/08/26 10:15:02;;;;;;;10.50;2.10;;;;;;;28.11;23.69;99084.39;25269;1313;3027188;-69
2022/08/26 10:17:38;;;;;;;7.40;2.30;;;;;;;28.14;23.72;99090.34;25310;1312;3054507;-67
2022/08/26 10:20:13;;;;;;;7.10;2.30;;;;;;;28.21;23.87;99089.88;25259;1311;3052430;-69
2022/08/26 10:23:00;;;;;;;20.30;2.80;;;;;;;28.19;24.41;99087.33;25240;1311;3057145;-64
2022/08/26 10:25:40;;;;;;;8.30;2.50;;;;;;;28.12;24.36;99088.16;25373;1312;3052834;-67
2022/08/26 10:28:46;;;;;;;21.30;2.80;;;;;;;28.05;24.43;99083.80;25294;1312;3052886;-64
2022/08/26 10:31:26;;;;;;;12.80;2.10;;;;;;;27.95;24.22;99082.73;25283;1315;3051448;-70
2022/08/26 10:34:11;;;;;;;11.30;2.30;;;;;;;27.98;24.42;99087.73;25243;1314;3067580;-66
2022/08/26 10:36:57;;;;;;;12.20;1.80;;;;;;;27.87;25.16;99082.89;25239;1314;3049455;-67
2022/08/26 10:39:38;;;;;;;16.70;2.80;;;;;;;27.82;25.09;99087.41;25426;1316;3052561;-67
2022/08/26 10:42:14;;;;;;;12.90;2.80;;;;;;;27.75;25.12;99087.69;25204;1315;3053159;-69
2022/08/26 10:44:43;;;;;;;11.20;3.00;;;;;;;27.69;25.24;99083.29;25103;1313;3056010;-65
2022/08/26 10:47:21;;;;;;;14.90;2.70;;;;;;;27.59;25.11;99081.31;25170;1315;3027019;-64
2022/08/26 10:49:52;;;;;;;11.70;2.70;;;;;;;27.55;25.60;99083.13;25107;1315;3052629;-68
2022/08/26 10:52:41;;;;;;;17.20;3.10;;;;;;;27.47;27.07;99084.64;25070;1316;3027433;-67
2022/08/26 10:55:16;;;;;;;15.60;2.10;;;;;;;27.38;27.67;99085.53;25099;1317;3049333;-65
2022/08/26 10:58:00;;;;;;;15.50;2.40;;;;;;;27.23;27.93;99083.31;25239;1315;3027550;-65
2022/08/26 11:03:53;;;;;;;14.40;2.90;;;;;;;27.17;27.39;99083.91;25145;1315;3068891;-68
2022/08/26 11:06:33;;;;;;;10.00;3.00;;;;;;;27.15;27.34;99081.84;25214;1317;3050085;-68
2022/08/26 11:09:05;;;;;;;14.60;2.20;;;;;;;27.20;27.55;99076.02;25282;1314;3030088;-67
2022/08/26 11:11:51;;;;;;;11.90;2.50;;;;;;;27.19;27.62;99077.67;25243;1314;3027181;-66
2022/08/26 11:14:32;;;;;;;12.00;2.60;;;;;;;27.12;27.45;99075.84;25418;1315;3057989;-69
2022/08/26 11:17:01;;;;;;;12.80;2.50;;;;;;;27.06;27.71;99072.80;25365;1314;3051230;-68
2022/08/26 11:19:34;;;;;;;8.80;2.40;;;;;;;27.03;27.69;99072.56;25316;1313;3026674;-70
2022/08/26 11:22:11;;;;;;;11.40;2.60;;;;;;;27.07;27.23;99071.44;25290;1312;3026826;-70
2022/08/26 11:25:01;;;;;;;10.90;2.40;;;;;;;27.11;27.06;99071.48;25079;1317;3068651;-67
2022/08/26 11:27:37;;;;;;;22.30;3.80;;;;;;;27.14;26.97;99078.98;25161;1315;3049794;-68
2022/08/26 11:30:16;;;;;;;20.50;6.40;;;;;;;27.19;27.10;99073.20;25130;1314;3026774;-66
2022/08/26 11:32:48;;;;;;;16.80;4.90;;;;;;;27.18;26.94;99078.48;25331;1313;3053064;-66
2022/08/26 11:35:24;;;;;;;20.30;4.40;;;;;;;27.23;27.04;99083.86;25220;1318;3026799;-69
2022/08/26 11:38:27;;;;;;;15.30;4.10;;;;;;;27.28;27.48;99080.61;25152;1316;3049977;-68
2022/08/26 11:41:11;;;;;;;18.00;3.60;;;;;;;27.26;27.18;99081.48;25156;1314;3052082;-68
2022/08/26 11:43:38;;;;;;;15.20;3.80;;;;;;;27.27;27.20;99079.85;24346;1314;3057700;-68
2022/08/26 11:46:09;;;;;;;19.00;3.40;;;;;;;27.33;27.01;99079.52;25124;1315;3051181;-65